Los Angeles, California
Current Conditions -  °F | °C
As of 11:47 AM on Monday 22 Dec 2014 (Local Time) from KCQT Reporting Station
Clear Clear  
Wind Chill: 72°   Ceiling: Unl
Heat Index: 72°   Visibility: 9mi
Dew Point: 49°   Wind: 0mph
Humidity: 44%   Direction: NA
Pressure: 29.99"   Gusts: NA
Location:  34.05°N, 118.24°W
Report Text: KCQT 221947Z AUTO 00000KT 9SM CLR 22/09 A2999 RMK AO2 SLP154 T02220094
Loading
Personal Weather Stations






























Interactive Weather Map New forecast layout! Learn more

10-Day Weather Forecast

Advertisements
Track Severe Weather on mobile